Time;durP1;ratioP1;P1;durP2;ratioP2;P2;SDS_P1;SDS_P2;PMS_P1;PMS_P2;Temp;Humidity;BMP_temperature;BMP_pressure;BME280_temperature;BME280_humidity;BME280_pressure;Samples;Min_cycle;Max_cycle;Signal;HPM_P1;HPM_P2
2023/06/30 00:02:14;;;;;;;7.33;6.63;;;;;;;22.86;57.83;157246.31;5064603;28;20507;-81
2023/06/30 00:04:40;;;;;;;7.27;6.63;;;;;;;22.85;58.10;157242.38;5066597;28;20445;-80
2023/06/30 00:07:08;;;;;;;8.17;7.37;;;;;;;22.85;57.94;157243.69;5064054;28;20822;-80
2023/06/30 00:09:36;;;;;;;7.37;6.37;;;;;;;22.87;57.95;157247.66;5085135;28;20447;-80
2023/06/30 00:12:03;;;;;;;6.10;5.60;;;;;;;22.86;58.17;157246.31;5088397;28;20453;-80
2023/06/30 00:14:29;;;;;;;7.30;6.60;;;;;;;22.87;57.96;157248.97;5069521;28;20441;-81
2023/06/30 00:16:56;;;;;;;6.70;6.10;;;;;;;22.87;57.42;157248.97;5073796;28;20459;-80
2023/06/30 00:19:23;;;;;;;7.90;7.20;;;;;;;22.86;57.87;157246.31;5080048;28;20485;-80
2023/06/30 00:21:52;;;;;;;6.40;5.90;;;;;;;22.84;58.31;157241.13;5086381;28;20802;-80
2023/06/30 00:24:19;;;;;;;7.10;6.40;;;;;;;22.83;58.30;157238.47;5073271;28;20481;-80
2023/06/30 00:26:47;;;;;;;7.43;6.83;;;;;;;22.80;58.11;157230.63;5086454;28;20814;-80
2023/06/30 00:29:13;;;;;;;7.30;6.60;;;;;;;22.79;57.99;157226.75;5067434;28;20452;-80
2023/06/30 00:31:40;;;;;;;6.83;6.23;;;;;;;22.78;57.89;157225.41;5068826;28;20479;-80
2023/06/30 00:34:07;;;;;;;7.63;6.90;;;;;;;22.79;57.97;157228.06;5081028;28;20461;-80
2023/06/30 00:36:33;;;;;;;7.23;6.63;;;;;;;22.77;57.49;157222.78;5065952;28;20458;-81
2023/06/30 00:39:00;;;;;;;7.60;6.80;;;;;;;22.73;58.35;157211.03;5067415;28;20495;-80
2023/06/30 00:41:26;;;;;;;6.63;6.10;;;;;;;22.68;58.72;157199.31;5067864;28;20461;-80
2023/06/30 00:43:55;;;;;;;7.33;6.73;;;;;;;22.65;58.10;157191.47;5081102;28;20456;-80
2023/06/30 00:46:22;;;;;;;7.07;6.37;;;;;;;22.69;58.31;157201.88;5066016;28;20453;-80
2023/06/30 00:48:49;;;;;;;7.23;6.63;;;;;;;22.65;58.75;157190.13;5082880;28;20445;-80
2023/06/30 00:51:15;;;;;;;9.60;7.77;;;;;;;22.64;59.58;157188.81;5065908;28;20480;-80
2023/06/30 00:53:42;;;;;;;7.73;7.07;;;;;;;22.59;58.44;157174.41;5087198;28;20465;-80
2023/06/30 00:56:08;;;;;;;7.50;6.40;;;;;;;22.52;59.28;157157.44;5066983;28;20460;-80
2023/06/30 00:58:35;;;;;;;7.30;6.60;;;;;;;22.44;59.89;157136.53;5060986;28;20448;-80
2023/06/30 01:01:07;;;;;;;6.80;6.20;;;;;;;22.37;60.42;157118.28;5061793;28;20480;-81
2023/06/30 01:03:40;;;;;;;7.77;7.07;;;;;;;22.31;60.06;157103.91;5068817;28;20445;-80
2023/06/30 01:06:11;;;;;;;6.90;6.30;;;;;;;22.29;60.64;157097.38;5066434;28;20460;-80
2023/06/30 01:08:42;;;;;;;6.90;6.40;;;;;;;22.24;60.13;157084.31;5052020;28;20446;-80
2023/06/30 01:11:09;;;;;;;7.23;6.50;;;;;;;22.21;60.62;157077.75;5060826;28;20484;-80
2023/06/30 01:13:36;;;;;;;7.80;7.10;;;;;;;22.20;60.44;157075.16;5057608;28;20511;-80
2023/06/30 01:16:05;;;;;;;7.80;7.10;;;;;;;22.20;60.02;157075.16;5071857;28;20443;-80
2023/06/30 01:18:36;;;;;;;7.73;7.10;;;;;;;22.17;60.76;157067.31;5065461;28;20903;-80
2023/06/30 01:21:03;;;;;;;7.40;6.80;;;;;;;22.12;60.25;157054.25;5066405;28;20461;-80
2023/06/30 01:23:34;;;;;;;10.70;7.30;;;;;;;22.12;60.36;157052.94;5051446;28;20852;-80
2023/06/30 01:26:02;;;;;;;7.13;6.53;;;;;;;22.13;60.83;157056.88;5066231;28;20439;-80
2023/06/30 01:28:29;;;;;;;7.73;7.10;;;;;;;22.06;62.14;157038.56;5059222;28;20459;-81
2023/06/30 01:30:56;;;;;;;8.40;7.70;;;;;;;21.97;61.47;157015.09;5076401;28;20799;-80
2023/06/30 01:33:26;;;;;;;8.27;7.50;;;;;;;21.95;61.24;157009.84;5068196;28;20542;-80
2023/06/30 01:35:53;;;;;;;7.50;6.90;;;;;;;21.88;61.71;156990.25;5068482;28;20873;-80
2023/06/30 01:38:21;;;;;;;8.00;7.40;;;;;;;21.91;61.67;156998.09;5059516;28;20453;-80
2023/06/30 01:40:47;;;;;;;7.70;7.00;;;;;;;21.86;61.40;156986.38;5072996;28;20488;-80
2023/06/30 01:43:15;;;;;;;7.97;7.37;;;;;;;21.88;61.12;156991.56;5071107;28;20449;-80
2023/06/30 01:45:41;;;;;;;8.03;7.33;;;;;;;21.91;61.50;156999.41;5063911;28;20456;-80
2023/06/30 01:48:09;;;;;;;7.43;6.83;;;;;;;21.88;62.01;156990.25;5082595;28;20882;-80
2023/06/30 01:50:37;;;;;;;7.93;7.23;;;;;;;21.77;62.72;156964.09;5075938;28;20453;-80
2023/06/30 01:53:04;;;;;;;11.40;7.53;;;;;;;21.73;62.55;156953.69;5071245;28;20850;-80
2023/06/30 01:55:30;;;;;;;7.43;6.83;;;;;;;21.79;62.34;156969.31;5072443;28;20465;-80
2023/06/30 01:57:57;;;;;;;7.47;6.77;;;;;;;21.76;62.12;156961.47;5072630;28;20457;-80
2023/06/30 02:00:23;;;;;;;6.50;6.00;;;;;;;21.78;61.53;156965.41;5072664;28;20473;-80
2023/06/30 02:02:50;;;;;;;8.00;7.27;;;;;;;21.77;62.04;156964.09;5055494;28;20452;-80
2023/06/30 02:05:17;;;;;;;7.80;7.00;;;;;;;21.74;62.29;156956.25;5067581;28;20463;-81
2023/06/30 02:07:44;;;;;;;7.37;6.77;;;;;;;21.72;62.44;156951.06;5058953;28;20457;-81
2023/06/30 02:10:12;;;;;;;7.37;6.77;;;;;;;21.67;62.69;156938.00;5078291;28;20484;-81
2023/06/30 02:12:39;;;;;;;7.63;6.93;;;;;;;21.60;63.32;156919.75;5051510;28;20461;-82
2023/06/30 02:15:08;;;;;;;7.73;7.13;;;;;;;21.55;63.21;156905.38;5067612;28;20455;-81
2023/06/30 02:17:35;;;;;;;7.57;6.97;;;;;;;21.49;63.90;156889.69;5061388;28;20488;-81
2023/06/30 02:20:03;;;;;;;7.57;6.97;;;;;;;21.43;63.82;156875.34;5067866;28;21014;-81
2023/06/30 02:22:30;;;;;;;7.77;6.97;;;;;;;21.42;63.62;156871.44;5069345;28;20554;-81
2023/06/30 02:24:57;;;;;;;7.30;6.63;;;;;;;21.45;63.36;156879.22;5070745;28;20453;-81
2023/06/30 02:27:25;;;;;;;8.07;6.87;;;;;;;21.44;63.52;156876.66;5088354;28;20908;-81
2023/06/30 02:29:51;;;;;;;7.73;7.03;;;;;;;21.37;64.56;156859.66;5052831;28;20839;-82
2023/06/30 02:32:18;;;;;;;6.83;6.33;;;;;;;21.31;63.93;156844.03;5053569;28;20489;-81
2023/06/30 02:34:45;;;;;;;7.87;7.13;;;;;;;21.24;64.80;156827.03;5052857;28;21121;-81
2023/06/30 02:37:12;;;;;;;8.00;6.93;;;;;;;21.24;64.74;156825.72;5048688;28;20935;-81
2023/06/30 02:39:38;;;;;;;8.80;7.57;;;;;;;21.18;65.14;156810.09;5066452;28;20473;-81
2023/06/30 02:42:06;;;;;;;8.23;6.93;;;;;;;21.14;65.16;156799.63;5063033;28;20614;-81
2023/06/30 02:44:33;;;;;;;7.97;7.27;;;;;;;21.10;65.43;156790.50;5051907;28;20496;-82
2023/06/30 02:47:00;;;;;;;8.00;7.20;;;;;;;21.11;65.83;156793.13;5071518;28;20486;-81
2023/06/30 02:49:26;;;;;;;7.60;7.00;;;;;;;21.09;65.99;156786.59;5070641;28;20445;-81
2023/06/30 02:51:53;;;;;;;8.53;7.67;;;;;;;21.08;64.78;156785.28;5068655;28;20457;-81
2023/06/30 02:54:20;;;;;;;7.30;6.70;;;;;;;21.13;65.17;156797.00;5072323;28;20467;-81
2023/06/30 02:56:46;;;;;;;7.93;7.33;;;;;;;21.09;65.64;156786.59;5049769;28;20460;-81
2023/06/30 02:59:14;;;;;;;8.80;6.80;;;;;;;21.06;66.08;156778.69;5067164;28;20470;-81
2023/06/30 03:01:41;;;;;;;8.90;7.47;;;;;;;21.02;66.26;156769.56;5053365;28;20474;-81
2023/06/30 03:04:08;;;;;;;7.37;6.77;;;;;;;21.00;66.38;156763.03;5070671;28;20457;-81
2023/06/30 03:06:36;;;;;;;6.80;6.20;;;;;;;20.98;66.48;156757.81;5059022;28;20586;-81
2023/06/30 03:09:03;;;;;;;7.97;7.27;;;;;;;20.99;66.16;156761.75;5066810;28;20466;-81
2023/06/30 03:11:31;;;;;;;8.27;7.47;;;;;;;21.02;66.19;156768.28;5060619;28;21114;-81
2023/06/30 03:13:58;;;;;;;7.17;6.57;;;;;;;21.04;65.27;156773.50;5066319;28;20525;-82
2023/06/30 03:16:32;;;;;;;8.13;7.33;;;;;;;21.07;65.16;156781.38;5061903;28;20458;-81
2023/06/30 03:18:59;;;;;;;7.83;7.10;;;;;;;21.09;65.10;156786.59;5050725;28;20456;-82
2023/06/30 03:21:26;;;;;;;7.70;7.10;;;;;;;21.08;65.75;156785.28;5053484;28;20568;-82
2023/06/30 03:23:52;;;;;;;8.47;7.73;;;;;;;21.02;66.13;156768.28;5054431;28;20461;-81
2023/06/30 03:26:19;;;;;;;8.63;7.83;;;;;;;20.98;65.86;156757.81;5065635;28;20457;-81
2023/06/30 03:28:46;;;;;;;8.60;7.90;;;;;;;20.99;65.98;156760.44;5062385;28;20454;-81
2023/06/30 03:31:13;;;;;;;8.60;7.80;;;;;;;21.01;65.81;156765.66;5052434;28;20983;-81
2023/06/30 03:33:43;;;;;;;8.70;8.10;;;;;;;20.99;66.12;156760.44;5049323;28;20445;-81
2023/06/30 03:36:11;;;;;;;8.80;7.97;;;;;;;20.98;65.80;156757.81;5036639;28;20494;-81
2023/06/30 03:38:37;;;;;;;8.20;7.50;;;;;;;21.00;65.92;156764.34;5075693;28;20447;-81
2023/06/30 03:41:04;;;;;;;8.30;7.60;;;;;;;21.00;66.36;156763.03;5070288;28;20999;-81
2023/06/30 03:43:32;;;;;;;8.80;8.00;;;;;;;20.95;65.76;156750.00;5036984;28;20449;-81
2023/06/30 03:46:01;;;;;;;9.03;8.33;;;;;;;20.94;66.08;156748.69;5061193;28;20454;-81
2023/06/30 03:48:28;;;;;;;9.03;8.13;;;;;;;20.94;66.50;156747.41;5063233;28;20461;-81
2023/06/30 03:50:56;;;;;;;8.23;7.50;;;;;;;20.89;66.80;156734.38;5049896;28;20455;-81
2023/06/30 03:53:23;;;;;;;8.53;7.73;;;;;;;20.89;67.94;156734.38;5042804;28;20835;-81
2023/06/30 03:55:49;;;;;;;10.17;9.17;;;;;;;20.90;68.20;156736.94;5060539;28;20578;-82
2023/06/30 03:58:16;;;;;;;9.90;9.10;;;;;;;20.91;67.20;156739.56;5045512;28;20457;-81
2023/06/30 04:00:42;;;;;;;9.60;8.70;;;;;;;20.92;67.21;156743.47;5060946;28;20484;-81
2023/06/30 04:03:09;;;;;;;9.10;8.20;;;;;;;20.93;67.64;156744.78;5066313;28;20464;-81
2023/06/30 04:05:35;;;;;;;8.83;8.03;;;;;;;20.91;67.87;156740.88;5064331;28;20457;-81
2023/06/30 04:08:04;;;;;;;8.87;7.97;;;;;;;20.89;68.30;156735.63;5068152;28;20456;-81
2023/06/30 04:10:30;;;;;;;10.30;9.50;;;;;;;20.87;68.29;156729.09;5064827;28;20454;-81
2023/06/30 04:12:57;;;;;;;8.27;7.57;;;;;;;20.86;68.56;156726.53;5083728;28;20465;-81
2023/06/30 04:15:23;;;;;;;10.60;8.30;;;;;;;20.87;68.54;156730.41;5053186;28;20453;-81
2023/06/30 04:17:50;;;;;;;10.00;9.00;;;;;;;20.90;68.12;156736.94;5063861;28;20490;-81
2023/06/30 04:20:17;;;;;;;9.00;8.30;;;;;;;20.92;68.25;156742.16;5058786;28;20469;-81
2023/06/30 04:22:43;;;;;;;9.60;8.80;;;;;;;20.90;69.04;156736.94;5062578;28;20468;-81
2023/06/30 04:25:11;;;;;;;9.83;8.93;;;;;;;20.93;68.87;156746.09;5069157;28;20437;-81
2023/06/30 04:27:38;;;;;;;10.90;8.87;;;;;;;20.93;69.11;156744.78;5054491;28;20599;-81
2023/06/30 04:30:06;;;;;;;10.10;8.63;;;;;;;20.93;69.36;156746.09;5073642;28;21413;-82
2023/06/30 04:32:32;;;;;;;8.70;7.90;;;;;;;20.93;69.92;156744.78;5084158;28;20517;-81
2023/06/30 04:34:59;;;;;;;8.83;8.03;;;;;;;20.91;69.99;156739.56;5059506;28;20863;-81
2023/06/30 04:37:28;;;;;;;10.70;9.70;;;;;;;20.91;70.22;156739.56;5068450;28;20454;-81
2023/06/30 04:39:56;;;;;;;8.57;7.93;;;;;;;20.94;69.82;156747.41;5056054;28;20461;-81
2023/06/30 04:42:24;;;;;;;9.40;8.50;;;;;;;20.96;69.90;156752.63;5065789;28;20554;-81
2023/06/30 04:44:51;;;;;;;8.93;8.13;;;;;;;20.97;69.66;156755.25;5050116;28;20464;-82
2023/06/30 04:47:17;;;;;;;9.20;8.40;;;;;;;21.00;69.50;156764.34;5063444;28;20449;-82
2023/06/30 04:49:44;;;;;;;9.00;8.30;;;;;;;21.01;69.21;156765.66;5062848;28;20458;-81
2023/06/30 04:52:11;;;;;;;9.27;8.37;;;;;;;21.03;69.40;156772.19;5085406;28;20488;-81
2023/06/30 04:54:37;;;;;;;9.47;8.50;;;;;;;21.07;69.13;156781.38;5067041;28;20838;-82
2023/06/30 04:57:06;;;;;;;9.70;8.80;;;;;;;21.08;69.30;156783.97;5083139;28;20489;-81
2023/06/30 04:59:34;;;;;;;9.23;8.43;;;;;;;21.06;69.09;156780.06;5065832;28;20455;-81
2023/06/30 05:02:01;;;;;;;10.07;9.20;;;;;;;21.04;69.24;156773.50;5057131;28;20543;-82
2023/06/30 05:04:27;;;;;;;9.53;8.70;;;;;;;21.02;69.26;156769.56;5079297;28;20557;-81
2023/06/30 05:06:54;;;;;;;11.00;9.30;;;;;;;21.03;69.55;156770.88;5063524;28;20450;-81
2023/06/30 05:09:23;;;;;;;9.67;8.67;;;;;;;21.03;69.54;156770.88;5073279;28;21440;-81
2023/06/30 05:11:49;;;;;;;9.90;9.03;;;;;;;20.99;70.32;156761.75;5082481;28;20453;-82
2023/06/30 05:14:16;;;;;;;9.70;8.80;;;;;;;20.98;69.97;156757.81;5079965;28;20461;-81
2023/06/30 05:16:44;;;;;;;22.23;13.73;;;;;;;21.03;75.49;156770.88;5076278;28;20458;-79
2023/06/30 05:19:10;;;;;;;14.40;11.53;;;;;;;20.96;80.38;156752.63;5063280;28;20454;-79
2023/06/30 05:21:37;;;;;;;13.93;12.53;;;;;;;20.90;84.13;156736.94;5079148;28;20571;-79
2023/06/30 05:24:04;;;;;;;12.10;10.80;;;;;;;20.78;85.56;156705.66;5076894;28;20499;-79
2023/06/30 05:26:31;;;;;;;11.77;10.67;;;;;;;20.73;86.95;156692.63;5062777;28;20457;-80
2023/06/30 05:28:58;;;;;;;12.57;11.30;;;;;;;20.68;87.78;156679.56;5079276;28;20450;-80
2023/06/30 05:31:24;;;;;;;13.23;12.00;;;;;;;20.64;89.33;156671.72;5079685;28;20482;-80
2023/06/30 05:33:52;;;;;;;12.67;11.53;;;;;;;20.56;88.82;156650.84;5078474;28;20501;-80
2023/06/30 05:36:19;;;;;;;11.87;10.77;;;;;;;20.51;88.75;156636.50;5064444;28;20445;-80
2023/06/30 05:38:46;;;;;;;12.33;11.13;;;;;;;20.46;90.68;156624.78;5078622;28;20850;-81
2023/06/30 05:41:13;;;;;;;11.97;11.00;;;;;;;20.39;90.32;156606.47;5058602;28;20486;-80
2023/06/30 05:43:40;;;;;;;12.70;11.60;;;;;;;20.36;91.58;156598.66;5058424;28;21068;-80
2023/06/30 05:46:06;;;;;;;11.83;10.60;;;;;;;20.32;92.75;156588.25;5066577;28;20488;-80
2023/06/30 05:48:33;;;;;;;13.30;12.10;;;;;;;20.25;93.33;156570.00;5081530;28;20506;-80
2023/06/30 05:51:01;;;;;;;12.83;11.73;;;;;;;20.21;94.27;156559.50;5080726;28;20433;-80
2023/06/30 05:53:27;;;;;;;13.20;11.80;;;;;;;20.19;95.26;156554.28;5061773;28;20466;-79
2023/06/30 05:55:55;;;;;;;13.53;12.33;;;;;;;20.19;95.40;156554.28;5069199;28;20453;-79
2023/06/30 05:58:22;;;;;;;14.40;13.00;;;;;;;20.12;96.74;156534.72;5048954;28;20448;-79
2023/06/30 06:00:48;;;;;;;13.00;11.80;;;;;;;20.07;96.93;156521.69;5075533;28;20475;-79
2023/06/30 06:03:15;;;;;;;13.70;12.43;;;;;;;20.02;97.38;156511.22;5069708;28;20485;-78
2023/06/30 06:05:41;;;;;;;13.67;12.30;;;;;;;20.03;98.19;156512.53;5078162;28;20464;-79
2023/06/30 06:08:09;;;;;;;14.03;12.87;;;;;;;20.05;98.40;156519.06;5061239;28;20454;-79
2023/06/30 06:10:36;;;;;;;14.63;13.30;;;;;;;20.02;99.04;156509.91;5074744;28;20446;-78
2023/06/30 06:13:02;;;;;;;14.63;13.20;;;;;;;19.98;100.00;156499.50;5079526;28;20529;-78
2023/06/30 06:15:29;;;;;;;14.63;13.33;;;;;;;19.93;100.00;156486.47;5065159;28;20449;-78
2023/06/30 06:17:55;;;;;;;16.67;14.57;;;;;;;19.85;100.00;156466.94;5067327;28;20449;-78
2023/06/30 06:20:22;;;;;;;14.50;13.20;;;;;;;19.84;100.00;156464.31;5064913;28;20450;-78
2023/06/30 06:22:48;;;;;;;16.00;14.53;;;;;;;19.81;100.00;156455.16;5077334;28;20530;-79
2023/06/30 06:25:16;;;;;;;15.90;14.30;;;;;;;19.80;100.00;156453.84;5079706;28;20454;-79
2023/06/30 06:27:43;;;;;;;15.20;13.80;;;;;;;19.78;100.00;156448.63;5079379;28;20460;-79
2023/06/30 06:30:10;;;;;;;14.97;13.40;;;;;;;19.80;100.00;156453.84;5079370;28;20452;-79
2023/06/30 06:32:37;;;;;;;14.73;13.33;;;;;;;19.80;100.00;156452.59;5065762;28;20615;-79
2023/06/30 06:35:04;;;;;;;14.97;13.43;;;;;;;19.83;100.00;156460.41;5075106;28;20549;-79
2023/06/30 06:37:31;;;;;;;15.07;13.77;;;;;;;19.87;100.00;156470.81;5058593;28;20446;-78
2023/06/30 06:39:57;;;;;;;15.17;13.77;;;;;;;19.90;100.00;156478.66;5074163;28;22015;-79
2023/06/30 06:42:25;;;;;;;16.40;14.90;;;;;;;19.86;100.00;156468.19;5065790;28;20482;-79
2023/06/30 06:44:52;;;;;;;15.50;14.00;;;;;;;19.84;100.00;156463.00;5061183;28;20465;-79
2023/06/30 06:47:52;;;;;;;14.10;12.80;;;;;;;19.82;100.00;156459.09;5065308;28;20615;-79
2023/06/30 06:50:18;;;;;;;15.07;13.57;;;;;;;19.77;100.00;156446.06;5025113;28;20465;-80
2023/06/30 06:52:45;;;;;;;15.70;14.37;;;;;;;19.79;100.00;156449.94;5073875;28;21024;-80
2023/06/30 06:55:12;;;;;;;15.63;14.33;;;;;;;19.77;100.00;156446.06;5062721;28;20441;-80
2023/06/30 06:57:39;;;;;;;15.10;13.70;;;;;;;19.78;100.00;156447.31;5073614;28;20462;-80
2023/06/30 07:00:07;;;;;;;15.47;14.07;;;;;;;19.79;100.00;156449.94;5075010;28;20515;-81
2023/06/30 07:02:34;;;;;;;14.50;13.00;;;;;;;19.81;100.00;156456.47;5075703;28;20535;-80
2023/06/30 07:05:00;;;;;;;14.80;13.37;;;;;;;19.83;100.00;156461.66;5057949;28;20888;-81
2023/06/30 07:07:27;;;;;;;14.63;13.30;;;;;;;19.83;100.00;156460.41;5048804;28;20529;-81
2023/06/30 07:09:53;;;;;;;16.07;14.70;;;;;;;19.85;100.00;156465.63;5065205;28;20469;-81
2023/06/30 07:12:20;;;;;;;15.60;14.00;;;;;;;19.86;100.00;156468.19;5074980;28;20453;-81
2023/06/30 07:14:48;;;;;;;14.23;12.73;;;;;;;19.94;100.00;156489.06;5062958;28;20457;-81
2023/06/30 07:17:14;;;;;;;15.03;13.13;;;;;;;19.97;100.00;156496.88;5057234;28;20464;-81
2023/06/30 07:19:42;;;;;;;15.27;13.80;;;;;;;20.02;100.00;156511.22;5058017;28;20482;-81
2023/06/30 07:22:08;;;;;;;15.60;13.77;;;;;;;20.12;100.00;156536.00;5074320;28;20487;-82
2023/06/30 07:24:35;;;;;;;15.47;14.07;;;;;;;20.16;100.00;156546.44;5052755;28;20549;-82
2023/06/30 07:27:02;;;;;;;13.70;12.50;;;;;;;20.17;100.00;156549.06;5057450;28;20524;-82
2023/06/30 07:29:28;;;;;;;14.37;13.07;;;;;;;20.18;100.00;156551.66;5074045;28;20541;-82
2023/06/30 07:31:56;;;;;;;14.63;13.13;;;;;;;20.22;100.00;156562.13;5075416;28;20484;-82
2023/06/30 07:34:23;;;;;;;15.97;14.57;;;;;;;20.26;100.00;156571.25;5055345;28;20459;-82
2023/06/30 07:36:50;;;;;;;16.03;14.53;;;;;;;20.26;100.00;156572.56;5064227;28;20446;-82
2023/06/30 07:39:17;;;;;;;17.03;15.40;;;;;;;20.29;100.00;156580.41;5079435;28;20488;-82
2023/06/30 07:41:43;;;;;;;16.60;15.00;;;;;;;20.33;100.00;156590.81;5053461;28;20484;-82
2023/06/30 07:44:11;;;;;;;17.10;15.60;;;;;;;20.33;100.00;156590.81;5055114;28;20474;-83
2023/06/30 07:46:38;;;;;;;16.33;14.83;;;;;;;20.35;100.00;156596.06;5070484;28;20554;-83
2023/06/30 07:49:06;;;;;;;16.97;15.30;;;;;;;20.34;100.00;156593.44;5070368;28;20464;-83
2023/06/30 07:51:33;;;;;;;15.50;14.00;;;;;;;20.32;100.00;156588.25;5056364;28;20456;-83
2023/06/30 07:53:59;;;;;;;15.80;14.30;;;;;;;20.32;100.00;156588.25;5065713;28;20963;-83
2023/06/30 07:56:26;;;;;;;15.50;13.90;;;;;;;20.26;100.00;156571.25;5066244;28;20449;-83
2023/06/30 07:58:52;;;;;;;16.53;14.93;;;;;;;20.24;100.00;156567.38;5073690;28;20450;-83
2023/06/30 08:01:19;;;;;;;14.73;13.43;;;;;;;20.23;100.00;156564.69;5056388;28;20474;-83
2023/06/30 08:03:46;;;;;;;15.97;14.27;;;;;;;20.20;100.00;156555.59;5073303;28;20539;-83
2023/06/30 08:06:14;;;;;;;13.77;12.30;;;;;;;20.17;100.00;156547.75;5073104;28;20486;-83
2023/06/30 08:08:40;;;;;;;14.80;12.63;;;;;;;20.15;100.00;156543.81;5065184;28;20449;-84
2023/06/30 08:11:07;;;;;;;13.90;12.70;;;;;;;20.14;100.00;156541.25;5056174;28;20565;-83
2023/06/30 08:13:34;;;;;;;14.70;13.13;;;;;;;20.10;100.00;156529.47;5073482;28;20449;-84
2023/06/30 08:16:01;;;;;;;13.57;12.20;;;;;;;20.11;100.00;156533.41;5062435;28;20445;-84
2023/06/30 08:18:28;;;;;;;13.73;12.43;;;;;;;20.07;100.00;156521.69;5048221;28;20479;-84
2023/06/30 08:20:55;;;;;;;13.40;12.10;;;;;;;20.00;100.00;156506.03;5044265;28;20454;-84
2023/06/30 08:23:23;;;;;;;15.80;11.60;;;;;;;20.01;100.00;156507.34;5072444;28;20992;-84
2023/06/30 08:25:53;;;;;;;14.03;12.57;;;;;;;19.95;100.00;156493.00;5078190;28;20536;-84
2023/06/30 08:28:20;;;;;;;14.10;12.13;;;;;;;19.96;100.00;156494.31;5064931;28;20477;-84
2023/06/30 08:30:46;;;;;;;14.17;12.20;;;;;;;19.90;100.00;156478.66;5076088;28;20454;-84
2023/06/30 08:33:13;;;;;;;15.67;12.57;;;;;;;19.93;100.00;156486.47;5048484;28;20478;-84
2023/06/30 08:35:39;;;;;;;15.90;13.17;;;;;;;19.90;100.00;156478.66;5060343;28;20876;-85
2023/06/30 08:38:06;;;;;;;15.30;13.40;;;;;;;19.86;100.00;156468.19;5076393;28;20457;-84
2023/06/30 08:40:34;;;;;;;14.90;13.30;;;;;;;19.85;100.00;156465.63;5059429;28;20983;-84
2023/06/30 08:43:03;;;;;;;14.27;12.77;;;;;;;19.85;100.00;156465.63;5057732;28;20482;-85
2023/06/30 08:45:30;;;;;;;18.10;13.40;;;;;;;19.85;100.00;156465.63;5054498;28;20519;-85
2023/06/30 08:48:00;;;;;;;16.40;13.20;;;;;;;19.90;100.00;156478.66;5060905;28;20830;-85
2023/06/30 08:50:27;;;;;;;14.63;12.47;;;;;;;19.88;100.00;156473.44;5059171;28;21235;-85
2023/06/30 08:52:55;;;;;;;14.97;12.27;;;;;;;19.87;100.00;156470.81;5058840;28;20793;-85
2023/06/30 08:55:21;;;;;;;16.00;14.20;;;;;;;19.87;100.00;156470.81;5071037;28;20534;-85
2023/06/30 08:57:49;;;;;;;14.60;12.90;;;;;;;19.86;100.00;156469.50;5066391;28;20475;-85
2023/06/30 09:00:17;;;;;;;16.43;14.00;;;;;;;19.85;100.00;156465.63;5075655;28;20461;-85
2023/06/30 09:02:43;;;;;;;16.10;13.23;;;;;;;19.85;100.00;156465.63;5071962;28;20994;-86
2023/06/30 09:05:10;;;;;;;14.50;12.33;;;;;;;19.87;100.00;156470.81;5073936;28;20464;-85
2023/06/30 09:07:40;;;;;;;17.13;12.80;;;;;;;19.86;100.00;156469.50;5076945;28;20923;-84
2023/06/30 09:10:09;;;;;;;14.80;13.07;;;;;;;19.81;100.00;156456.47;5043273;28;20449;-82
2023/06/30 09:12:36;;;;;;;14.40;12.20;;;;;;;19.76;100.00;156443.44;5074070;28;20558;-81
2023/06/30 09:15:06;;;;;;;12.73;11.43;;;;;;;19.73;100.00;156434.28;5072511;28;20863;-82
2023/06/30 09:17:32;;;;;;;14.83;11.47;;;;;;;19.72;100.00;156431.72;5059763;28;20517;-82
2023/06/30 09:19:59;;;;;;;13.07;11.67;;;;;;;19.68;100.00;156422.56;5076978;28;20483;-82
2023/06/30 09:22:26;;;;;;;14.27;12.73;;;;;;;19.61;100.00;156403.03;5067560;28;20540;-82
2023/06/30 09:24:52;;;;;;;15.90;12.70;;;;;;;19.52;100.00;156380.84;5071272;28;20450;-81
2023/06/30 09:27:19;;;;;;;14.03;12.53;;;;;;;19.48;100.00;156369.13;5065268;28;20466;-81
2023/06/30 09:29:54;;;;;;;15.53;12.97;;;;;;;19.48;100.00;156369.13;5057086;28;20492;-81
2023/06/30 09:32:29;;;;;;;14.50;13.00;;;;;;;19.43;100.00;156358.69;5056379;28;21018;-81
2023/06/30 09:34:56;;;;;;;14.37;12.83;;;;;;;19.33;100.00;156331.25;5058017;28;21065;-81
2023/06/30 09:37:22;;;;;;;14.20;12.70;;;;;;;19.33;100.00;156332.56;5073769;28;20496;-80
2023/06/30 09:39:51;;;;;;;12.00;10.77;;;;;;;19.29;100.00;156320.84;5063088;28;20457;-81
2023/06/30 09:42:19;;;;;;;13.10;11.50;;;;;;;19.30;100.00;156324.75;5063589;28;20564;-81
2023/06/30 09:44:45;;;;;;;16.00;13.00;;;;;;;19.31;100.00;156327.38;5075661;28;20920;-81
2023/06/30 09:47:12;;;;;;;17.10;13.57;;;;;;;19.37;100.00;156343.06;5074083;28;20798;-81
2023/06/30 09:49:43;;;;;;;16.33;14.47;;;;;;;19.35;100.00;156336.50;5064507;28;20465;-81
2023/06/30 09:52:10;;;;;;;15.27;13.37;;;;;;;19.32;100.00;156330.00;5069155;28;20817;-81
2023/06/30 09:54:36;;;;;;;14.73;13.10;;;;;;;19.34;100.00;156335.19;5060084;28;20456;-81
2023/06/30 09:57:05;;;;;;;13.33;11.93;;;;;;;19.31;100.00;156326.06;5060255;28;20450;-81
2023/06/30 09:59:31;;;;;;;13.53;11.43;;;;;;;19.30;100.00;156323.47;5074145;28;20498;-82
2023/06/30 10:01:59;;;;;;;12.07;10.83;;;;;;;19.31;100.00;156326.06;5076112;28;21256;-81
2023/06/30 10:04:28;;;;;;;12.00;10.80;;;;;;;19.33;100.00;156332.56;5059336;28;20518;-81
2023/06/30 10:06:56;;;;;;;13.47;12.07;;;;;;;19.46;100.00;156363.94;5065660;28;20876;-81
2023/06/30 10:09:23;;;;;;;13.53;12.13;;;;;;;19.40;100.00;156350.91;5075103;28;20527;-81
2023/06/30 10:11:51;;;;;;;14.70;13.17;;;;;;;19.44;100.00;156361.31;5066897;28;20505;-81
2023/06/30 10:14:20;;;;;;;15.10;13.00;;;;;;;19.48;100.00;156369.13;5059550;28;20977;-79
2023/06/30 10:16:47;;;;;;;14.50;13.10;;;;;;;19.52;100.00;156379.53;5070315;28;20461;-78
2023/06/30 10:19:15;;;;;;;13.63;12.23;;;;;;;19.51;100.00;156378.28;5078175;28;20445;-78
2023/06/30 10:21:41;;;;;;;13.60;12.07;;;;;;;19.56;100.00;156391.31;5058095;28;20967;-78
2023/06/30 10:24:10;;;;;;;15.77;13.63;;;;;;;19.60;100.00;156400.41;5065066;28;20471;-78
2023/06/30 10:26:37;;;;;;;16.47;14.20;;;;;;;19.64;100.00;156410.84;5059020;28;20510;-78
2023/06/30 10:29:04;;;;;;;14.30;12.90;;;;;;;19.68;100.00;156422.56;5052597;28;20468;-78
2023/06/30 10:31:31;;;;;;;13.07;11.67;;;;;;;19.72;100.00;156431.72;5077446;28;20504;-78
2023/06/30 10:33:58;;;;;;;13.50;12.10;;;;;;;19.75;100.00;156440.81;5075665;28;20461;-78
2023/06/30 10:36:25;;;;;;;14.13;12.63;;;;;;;19.77;100.00;156446.06;5059713;28;20472;-78
2023/06/30 10:38:53;;;;;;;14.20;12.80;;;;;;;19.77;100.00;156444.75;5074043;28;20450;-78
2023/06/30 10:41:22;;;;;;;14.10;12.37;;;;;;;19.84;100.00;156463.00;5063104;28;20812;-78
2023/06/30 10:44:10;;;;;;;14.10;12.70;;;;;;;19.84;100.00;156463.00;5046780;28;20826;-78
2023/06/30 10:46:51;;;;;;;16.10;13.10;;;;;;;19.88;100.00;156473.44;5076704;28;20457;-77
2023/06/30 10:49:19;;;;;;;14.17;12.87;;;;;;;19.89;100.00;156476.03;5073391;28;20582;-78
2023/06/30 10:51:47;;;;;;;15.17;13.67;;;;;;;19.94;100.00;156489.06;5076090;28;20449;-78
2023/06/30 10:54:21;;;;;;;15.67;14.17;;;;;;;19.96;100.00;156495.56;5075107;28;20453;-78
2023/06/30 10:56:49;;;;;;;15.23;13.63;;;;;;;19.99;100.00;156502.09;5076318;28;20454;-78
2023/06/30 10:59:18;;;;;;;15.30;13.70;;;;;;;20.01;100.00;156508.59;5074136;28;20433;-78
2023/06/30 11:02:12;;;;;;;15.53;14.03;;;;;;;20.05;100.00;156519.06;5041235;28;20454;-78
2023/06/30 11:04:40;;;;;;;16.67;14.53;;;;;;;20.08;100.00;156524.25;5041360;28;20446;-79
2023/06/30 11:07:07;;;;;;;15.57;14.00;;;;;;;20.10;100.00;156530.78;5059664;28;20454;-78
2023/06/30 11:09:59;;;;;;;16.10;14.40;;;;;;;20.08;100.00;156525.59;5071009;28;20531;-79
2023/06/30 11:12:29;;;;;;;18.40;15.47;;;;;;;20.11;100.00;156533.41;5062440;28;20481;-79
2023/06/30 11:14:58;;;;;;;18.20;16.40;;;;;;;20.13;100.00;156538.63;5059546;28;20812;-79